createdAt,value
2023-03-25T00:00:53.210Z,9.73
2023-03-25T00:03:22.278Z,9.76
2023-03-25T00:05:50.218Z,9.67
2023-03-25T00:08:18.094Z,9.67
2023-03-25T00:10:47.073Z,9.73
2023-03-25T00:13:16.284Z,9.63
2023-03-25T00:15:47.617Z,9.58
2023-03-25T00:18:17.367Z,9.58
2023-03-25T00:20:45.952Z,9.54
2023-03-25T00:23:14.126Z,9.51
2023-03-25T00:25:41.790Z,9.53
2023-03-25T00:28:10.649Z,9.49
2023-03-25T00:30:39.213Z,9.50
2023-03-25T00:33:10.689Z,9.53
2023-03-25T00:35:39.515Z,9.45
2023-03-25T00:38:07.886Z,9.45
2023-03-25T00:40:35.608Z,9.44
2023-03-25T00:43:05.340Z,9.41
2023-03-25T00:45:35.245Z,9.39
2023-03-25T00:48:05.023Z,9.41
2023-03-25T00:50:34.450Z,9.36
2023-03-25T00:53:03.324Z,9.38
2023-03-25T00:55:30.962Z,9.40
2023-03-25T00:57:59.396Z,9.40
2023-03-25T01:00:27.131Z,9.43
2023-03-25T01:02:56.294Z,9.46
2023-03-25T01:05:24.877Z,9.42
2023-03-25T01:07:52.549Z,9.43
2023-03-25T01:10:20.323Z,9.44
2023-03-25T01:12:48.197Z,9.46
2023-03-25T01:15:16.242Z,9.47
2023-03-25T01:17:43.990Z,9.45
2023-03-25T01:20:13.656Z,9.42
2023-03-25T01:22:41.380Z,9.45
2023-03-25T01:25:09.544Z,9.48
2023-03-25T01:27:37.264Z,9.53
2023-03-25T01:30:05.579Z,9.51
2023-03-25T01:32:33.411Z,9.46
2023-03-25T01:35:00.990Z,9.44
2023-03-25T01:37:33.982Z,9.51
2023-03-25T01:40:02.267Z,9.45
2023-03-25T01:42:29.882Z,9.48
2023-03-25T01:45:32.645Z,9.46
2023-03-25T01:48:06.020Z,9.47
2023-03-25T01:50:35.898Z,9.44
2023-03-25T01:53:06.078Z,9.44
2023-03-25T01:55:36.291Z,9.46
2023-03-25T01:58:11.816Z,9.43
2023-03-25T02:00:40.569Z,9.45
2023-03-25T02:03:13.660Z,9.47
2023-03-25T02:05:49.858Z,9.44
2023-03-25T02:08:22.515Z,9.45
2023-03-25T02:10:52.108Z,9.46
2023-03-25T02:13:21.289Z,9.49
2023-03-25T02:16:09.106Z,9.41
2023-03-25T02:18:48.270Z,9.43
2023-03-25T02:21:56.638Z,9.45
2023-03-25T02:25:01.901Z,9.47
2023-03-25T02:27:48.313Z,9.52
2023-03-25T02:30:52.413Z,9.44
2023-03-25T02:33:38.680Z,9.38
2023-03-25T02:36:38.692Z,9.34
2023-03-25T02:39:14.235Z,9.28
2023-03-25T02:41:51.054Z,9.24
2023-03-25T02:44:26.106Z,9.24
2023-03-25T02:46:57.596Z,9.22
2023-03-25T02:49:28.783Z,9.24
2023-03-25T02:52:03.385Z,9.23
2023-03-25T02:54:37.092Z,9.20
2023-03-25T02:57:07.695Z,9.15
2023-03-25T02:59:38.309Z,9.14
2023-03-25T03:02:11.366Z,9.13
2023-03-25T03:04:49.280Z,9.07
2023-03-25T03:07:24.958Z,9.06
2023-03-25T03:18:10.400Z,8.88
2023-03-25T03:20:45.159Z,8.85
2023-03-25T03:23:26.701Z,8.81
2023-03-25T03:26:02.338Z,8.72
2023-03-25T03:28:34.041Z,8.70
2023-03-25T03:31:07.061Z,8.70
2023-03-25T03:33:41.395Z,8.67
2023-03-25T03:36:13.471Z,8.64
2023-03-25T03:38:46.189Z,8.61
2023-03-25T03:41:20.001Z,8.52
2023-03-25T03:43:52.740Z,8.48
2023-03-25T03:46:25.913Z,8.45
2023-03-25T03:48:58.292Z,8.45
2023-03-25T03:51:32.432Z,8.45
2023-03-25T03:54:03.935Z,8.44
2023-03-25T03:56:41.267Z,8.41
2023-03-25T03:59:14.261Z,8.36
2023-03-25T04:01:46.020Z,8.37
2023-03-25T04:04:17.166Z,8.34
2023-03-25T04:06:50.586Z,8.37
2023-03-25T04:09:27.434Z,8.35
2023-03-25T04:11:59.536Z,8.33
2023-03-25T04:14:27.037Z,8.38
2023-03-25T04:16:56.393Z,8.32
2023-03-25T04:19:27.600Z,8.32
2023-03-25T04:21:55.421Z,8.33
2023-03-25T04:24:25.077Z,8.35
2023-03-25T04:26:52.983Z,8.34
2023-03-25T04:29:20.665Z,8.34
2023-03-25T04:31:50.140Z,8.33
2023-03-25T04:34:20.509Z,8.36
2023-03-25T04:36:50.294Z,8.36
2023-03-25T04:39:22.417Z,8.39
2023-03-25T04:41:51.079Z,8.38
2023-03-25T04:44:18.611Z,8.40
2023-03-25T04:49:38.848Z,8.46
2023-03-25T04:52:09.213Z,8.41
2023-03-25T04:54:39.304Z,8.43
2023-03-25T04:57:08.583Z,8.50
2023-03-25T04:59:37.051Z,8.45
2023-03-25T05:02:06.059Z,8.47
2023-03-25T05:04:34.598Z,8.50
2023-03-25T05:07:02.425Z,8.65
2023-03-25T05:09:31.554Z,8.57
2023-03-25T05:11:59.171Z,8.55
2023-03-25T05:14:27.897Z,8.54
2023-03-25T05:16:59.230Z,8.51
2023-03-25T05:19:53.347Z,8.56
2023-03-25T05:22:22.382Z,8.60
2023-03-25T05:24:53.322Z,8.60
2023-03-25T05:27:20.877Z,8.49
2023-03-25T05:29:48.561Z,8.51
2023-03-25T05:32:17.616Z,8.47
2023-03-25T05:34:46.497Z,8.47
2023-03-25T05:37:14.366Z,8.53
2023-03-25T05:39:45.630Z,8.46
2023-03-25T05:42:15.157Z,8.42
2023-03-25T05:44:50.804Z,8.43
2023-03-25T05:47:21.714Z,8.40
2023-03-25T05:49:51.310Z,8.47
2023-03-25T05:52:20.562Z,8.38
2023-03-25T05:54:50.590Z,8.37
2023-03-25T05:57:21.390Z,8.34
2023-03-25T05:59:51.115Z,8.35
2023-03-25T06:02:18.725Z,8.36
2023-03-25T06:04:50.443Z,8.37
2023-03-25T06:07:20.645Z,8.41
2023-03-25T06:09:48.713Z,8.39
2023-03-25T06:12:17.658Z,8.31
2023-03-25T06:14:48.341Z,8.37
2023-03-25T06:17:19.008Z,8.47
2023-03-25T06:19:47.150Z,8.40
2023-03-25T06:22:15.464Z,8.41
2023-03-25T06:24:43.681Z,8.38
2023-03-25T06:27:16.294Z,8.36
2023-03-25T06:29:49.305Z,8.41
2023-03-25T06:32:19.308Z,8.42
2023-03-25T06:34:46.885Z,8.41
2023-03-25T06:37:18.544Z,8.44
2023-03-25T06:39:49.634Z,8.39
2023-03-25T06:42:20.994Z,8.38
2023-03-25T06:45:08.453Z,8.58
2023-03-25T06:47:45.957Z,8.52
2023-03-25T06:50:13.538Z,8.41
2023-03-25T06:52:41.415Z,8.40
2023-03-25T06:55:09.682Z,8.39
2023-03-25T06:57:37.906Z,8.53
2023-03-25T07:00:09.098Z,8.40
2023-03-25T07:02:36.672Z,8.45
2023-03-25T07:05:05.365Z,8.41
2023-03-25T07:07:34.148Z,8.41
2023-03-25T07:10:01.787Z,8.38
2023-03-25T07:12:29.361Z,8.49
2023-03-25T07:14:59.089Z,8.49
2023-03-25T07:17:28.381Z,8.61
2023-03-25T07:19:57.831Z,8.58
2023-03-25T07:22:25.413Z,8.54
2023-03-25T07:24:53.184Z,8.55
2023-03-25T07:27:21.345Z,8.57
2023-03-25T07:29:59.698Z,8.71
2023-03-25T07:32:28.714Z,8.72
2023-03-25T07:34:56.423Z,8.73
2023-03-25T07:37:25.439Z,8.77
2023-03-25T07:39:52.969Z,8.81
2023-03-25T07:42:20.558Z,9.01
2023-03-25T07:45:16.961Z,9.17
2023-03-25T07:47:50.564Z,9.13
2023-03-25T07:50:18.203Z,9.19
2023-03-25T07:52:46.202Z,9.26
2023-03-25T07:55:16.908Z,9.25
2023-03-25T07:57:45.470Z,9.43
2023-03-25T08:00:14.571Z,9.35
2023-03-25T08:02:42.630Z,9.40
2023-03-25T08:05:12.387Z,9.50
2023-03-25T08:07:40.446Z,9.52
2023-03-25T08:10:09.646Z,9.46
2023-03-25T08:12:38.329Z,9.54
2023-03-25T08:15:06.666Z,9.54
2023-03-25T08:17:36.241Z,9.56
2023-03-25T08:20:05.601Z,9.56
2023-03-25T08:22:34.817Z,9.63
2023-03-25T08:25:02.441Z,9.67
2023-03-25T08:27:32.468Z,9.67
2023-03-25T08:30:00.730Z,9.64
2023-03-25T08:32:29.392Z,9.67
2023-03-25T08:34:58.040Z,9.75
2023-03-25T08:37:26.362Z,9.76
2023-03-25T08:39:57.965Z,9.85
2023-03-25T08:42:26.319Z,9.96
2023-03-25T08:44:54.417Z,10.14
2023-03-25T08:47:22.098Z,10.08
2023-03-25T08:49:49.697Z,10.39
2023-03-25T08:52:17.227Z,10.53
2023-03-25T08:54:44.808Z,10.56
2023-03-25T08:57:13.954Z,10.63
2023-03-25T08:59:42.113Z,10.76
2023-03-25T09:02:11.582Z,10.98
2023-03-25T09:04:39.468Z,11.01
2023-03-25T09:07:12.067Z,10.87
2023-03-25T09:09:40.250Z,10.87
2023-03-25T09:12:10.529Z,10.96
2023-03-25T09:14:39.696Z,10.85
2023-03-25T09:17:10.066Z,10.82
2023-03-25T09:19:39.409Z,10.85
2023-03-25T09:22:08.129Z,10.85
2023-03-25T09:24:35.895Z,10.84
2023-03-25T09:27:04.391Z,10.93
2023-03-25T09:29:32.223Z,10.87
2023-03-25T09:32:01.241Z,10.86
2023-03-25T09:34:29.354Z,10.81
2023-03-25T09:36:57.174Z,10.99
2023-03-25T09:39:25.313Z,10.91
2023-03-25T09:42:10.604Z,10.84
2023-03-25T09:44:52.321Z,10.88
2023-03-25T09:47:24.699Z,10.75
2023-03-25T09:49:58.812Z,10.67
2023-03-25T09:52:32.397Z,10.67
2023-03-25T09:55:03.998Z,10.56
2023-03-25T09:57:33.367Z,10.44
2023-03-25T10:00:06.929Z,10.31
2023-03-25T10:02:41.882Z,10.14
2023-03-25T10:05:27.323Z,10.02
2023-03-25T10:08:09.392Z,9.95
2023-03-25T10:10:41.476Z,9.97
2023-03-25T10:13:20.115Z,9.93
2023-03-25T10:15:55.316Z,10.10
2023-03-25T10:18:45.403Z,10.14
2023-03-25T10:21:20.622Z,10.23
2023-03-25T10:24:21.156Z,10.41
2023-03-25T10:26:55.314Z,10.58
2023-03-25T10:29:31.532Z,10.80
2023-03-25T10:32:04.331Z,10.87
2023-03-25T10:34:39.213Z,11.06
2023-03-25T10:37:12.350Z,10.89
2023-03-25T10:39:45.280Z,10.90
2023-03-25T10:42:26.598Z,10.84
2023-03-25T10:44:55.346Z,10.86
2023-03-25T10:47:26.749Z,10.66
2023-03-25T10:49:56.426Z,10.55
2023-03-25T10:52:24.743Z,10.59
2023-03-25T10:54:56.336Z,10.55
2023-03-25T10:57:28.347Z,10.57
2023-03-25T11:00:01.764Z,10.64
2023-03-25T11:02:33.034Z,10.82
2023-03-25T11:05:06.449Z,10.70
2023-03-25T11:07:38.312Z,10.86
2023-03-25T11:10:17.908Z,10.68
2023-03-25T11:12:46.520Z,10.66
2023-03-25T11:15:17.127Z,10.66
2023-03-25T11:17:48.891Z,10.76
2023-03-25T11:20:23.454Z,10.72
2023-03-25T11:22:57.328Z,10.77
2023-03-25T11:25:30.621Z,10.81
2023-03-25T11:28:31.539Z,10.87
2023-03-25T11:31:12.244Z,10.91
2023-03-25T11:33:42.149Z,11.03
2023-03-25T11:36:30.231Z,11.14
2023-03-25T11:39:00.404Z,11.27
2023-03-25T11:41:34.276Z,11.18
2023-03-25T11:44:06.128Z,11.26
2023-03-25T11:46:43.387Z,11.30
2023-03-25T11:49:17.727Z,11.17
2023-03-25T11:51:46.922Z,11.16
2023-03-25T11:54:42.476Z,11.09
2023-03-25T11:57:16.151Z,11.09
2023-03-25T11:59:46.496Z,11.02
2023-03-25T12:02:26.367Z,10.98
2023-03-25T12:05:00.268Z,10.90
2023-03-25T12:07:41.841Z,10.74
2023-03-25T12:10:18.432Z,10.54
2023-03-25T12:13:01.061Z,10.47
2023-03-25T12:15:40.792Z,10.29
2023-03-25T12:18:36.333Z,10.26
2023-03-25T12:21:11.901Z,10.24
2023-03-25T12:23:47.137Z,10.23
2023-03-25T12:26:18.552Z,10.23
2023-03-25T12:29:07.687Z,10.21
2023-03-25T12:31:47.543Z,10.20
2023-03-25T12:34:27.209Z,10.26
2023-03-25T12:37:06.224Z,10.29
2023-03-25T12:39:49.298Z,10.27
2023-03-25T12:42:33.695Z,10.23
2023-03-25T12:45:24.362Z,10.17
2023-03-25T12:47:58.455Z,10.07
2023-03-25T12:50:39.433Z,10.04
2023-03-25T12:53:24.440Z,10.04
2023-03-25T12:56:06.917Z,9.93
2023-03-25T12:58:52.638Z,9.93
2023-03-25T13:01:28.231Z,9.89
2023-03-25T13:04:43.588Z,9.87
2023-03-25T13:07:15.813Z,9.75
2023-03-25T13:09:54.624Z,9.74
2023-03-25T13:12:32.193Z,9.85
2023-03-25T13:15:07.651Z,9.99
2023-03-25T13:17:40.382Z,10.05
2023-03-25T13:20:12.347Z,10.14
2023-03-25T13:22:48.312Z,10.21
2023-03-25T13:25:26.341Z,10.34
2023-03-25T13:27:58.007Z,10.36
2023-03-25T13:30:32.409Z,10.27
2023-03-25T13:33:06.458Z,10.29
2023-03-25T13:35:43.825Z,10.20
2023-03-25T13:38:17.296Z,10.09
2023-03-25T13:40:54.626Z,10.01
2023-03-25T13:43:29.892Z,9.97
2023-03-25T13:46:26.783Z,9.92
2023-03-25T13:49:00.382Z,9.90
2023-03-25T13:51:28.503Z,9.91
2023-03-25T13:54:00.126Z,9.93
2023-03-25T13:57:10.353Z,10.00
2023-03-25T14:00:13.465Z,10.05
2023-03-25T14:03:11.465Z,10.11
2023-03-25T14:06:09.707Z,10.02
2023-03-25T14:09:18.756Z,9.97
2023-03-25T14:11:52.323Z,9.91
2023-03-25T14:14:23.330Z,9.89
2023-03-25T14:16:54.626Z,9.81
2023-03-25T14:19:29.427Z,9.80
2023-03-25T14:21:57.546Z,9.78
2023-03-25T14:24:30.349Z,9.71
2023-03-25T14:27:29.140Z,9.64
2023-03-25T14:30:00.343Z,9.72
2023-03-25T14:32:34.400Z,9.54
2023-03-25T14:35:41.278Z,9.45
2023-03-25T14:38:49.465Z,9.39
2023-03-25T14:41:18.578Z,9.43
2023-03-25T14:43:53.028Z,9.58
2023-03-25T14:49:22.191Z,9.60
2023-03-25T14:51:53.365Z,9.62
2023-03-25T14:54:29.528Z,9.64
2023-03-25T14:57:06.670Z,9.61
2023-03-25T14:59:38.789Z,9.70
2023-03-25T15:02:15.114Z,9.71
2023-03-25T15:04:45.059Z,9.64
2023-03-25T15:07:19.574Z,9.84
2023-03-25T15:10:18.010Z,9.83
2023-03-25T15:12:53.330Z,9.91
2023-03-25T15:15:32.945Z,9.87
2023-03-25T15:18:01.070Z,9.84
2023-03-25T15:20:35.901Z,9.89
2023-03-25T15:23:41.298Z,9.94
2023-03-25T15:26:16.358Z,9.89
2023-03-25T15:29:00.627Z,9.91
2023-03-25T15:31:40.645Z,9.96
2023-03-25T15:34:19.408Z,9.92
2023-03-25T15:37:14.081Z,9.89
2023-03-25T15:40:05.040Z,9.85
2023-03-25T15:42:51.387Z,9.89
2023-03-25T15:45:57.781Z,9.88
2023-03-25T15:48:55.345Z,9.92
2023-03-25T15:51:47.830Z,9.97
2023-03-25T15:54:26.304Z,9.86
2023-03-25T15:56:59.018Z,9.87
2023-03-25T15:59:34.989Z,9.92
2023-03-25T16:02:06.304Z,9.77
2023-03-25T16:04:40.633Z,9.83
2023-03-25T16:07:10.790Z,9.86
2023-03-25T16:09:44.652Z,9.90
2023-03-25T16:12:12.414Z,9.90
2023-03-25T16:14:44.119Z,9.87
2023-03-25T16:17:12.761Z,9.84
2023-03-25T16:19:44.297Z,9.79
2023-03-25T16:22:16.707Z,9.73
2023-03-25T16:24:46.277Z,9.59
2023-03-25T16:27:20.526Z,9.48
2023-03-25T16:29:50.035Z,9.36
2023-03-25T16:32:20.888Z,9.35
2023-03-25T16:34:53.720Z,9.38
2023-03-25T16:37:25.102Z,9.30
2023-03-25T16:39:54.443Z,9.32
2023-03-25T16:42:28.034Z,9.16
2023-03-25T16:44:55.990Z,9.17
2023-03-25T16:47:24.489Z,9.12
2023-03-25T16:49:56.334Z,9.18
2023-03-25T16:52:29.441Z,9.20
2023-03-25T16:55:30.343Z,9.12
2023-03-25T16:58:01.035Z,9.06
2023-03-25T17:00:43.445Z,8.98
2023-03-25T17:03:17.581Z,9.00
2023-03-25T17:05:54.833Z,8.98
2023-03-25T17:08:23.435Z,9.01
2023-03-25T17:10:56.282Z,9.00
2023-03-25T17:13:27.102Z,8.97
2023-03-25T17:15:54.999Z,8.98
2023-03-25T17:18:28.685Z,8.99
2023-03-25T17:21:01.330Z,9.04
2023-03-25T17:23:36.522Z,8.50
2023-03-25T17:26:09.476Z,8.14
2023-03-25T17:28:39.790Z,7.95
2023-03-25T17:31:29.552Z,7.85
2023-03-25T17:34:05.310Z,7.74
2023-03-25T17:36:36.279Z,7.67
2023-03-25T17:39:06.904Z,7.63
2023-03-25T17:41:38.681Z,7.64
2023-03-25T17:44:08.459Z,7.59
2023-03-25T17:46:36.249Z,7.53
2023-03-25T17:49:15.563Z,7.47
2023-03-25T17:51:45.502Z,7.48
2023-03-25T17:54:14.396Z,7.45
2023-03-25T17:56:42.334Z,7.44
2023-03-25T17:59:17.350Z,7.44
2023-03-25T18:01:46.220Z,7.37
2023-03-25T18:04:15.719Z,7.39
2023-03-25T18:06:45.114Z,7.34
2023-03-25T18:09:17.118Z,7.32
2023-03-25T18:11:45.851Z,7.35
2023-03-25T18:14:13.776Z,7.34
2023-03-25T18:16:41.492Z,7.34
2023-03-25T18:19:14.541Z,7.37
2023-03-25T18:21:45.349Z,7.39
2023-03-25T18:24:15.214Z,7.37
2023-03-25T18:26:44.372Z,7.42
2023-03-25T18:29:17.324Z,7.38
2023-03-25T18:31:44.994Z,7.41
2023-03-25T18:34:13.672Z,7.38
2023-03-25T18:36:41.760Z,7.40
2023-03-25T18:39:14.859Z,7.42
2023-03-25T18:41:42.773Z,7.50
2023-03-25T18:44:11.379Z,7.46
2023-03-25T18:46:40.195Z,7.42
2023-03-25T18:49:13.349Z,7.42
2023-03-25T18:51:41.028Z,7.46
2023-03-25T18:54:08.545Z,7.38
2023-03-25T18:56:37.877Z,7.38
2023-03-25T18:59:05.836Z,7.36
2023-03-25T19:01:34.479Z,7.34
2023-03-25T19:04:03.343Z,7.36
2023-03-25T19:06:31.964Z,7.35
2023-03-25T19:09:01.339Z,7.30
2023-03-25T19:11:33.589Z,7.23
2023-03-25T19:14:03.466Z,7.29
2023-03-25T19:16:32.044Z,7.26
2023-03-25T19:19:00.364Z,7.25
2023-03-25T19:21:28.041Z,7.23
2023-03-25T19:23:55.889Z,7.26
2023-03-25T19:26:23.778Z,7.28
2023-03-25T19:28:51.963Z,7.25
2023-03-25T19:31:21.162Z,7.22
2023-03-25T19:33:48.835Z,7.27
2023-03-25T19:36:18.858Z,7.27
2023-03-25T19:38:46.738Z,7.30
2023-03-25T19:41:16.440Z,7.33
2023-03-25T19:43:44.403Z,7.36
2023-03-25T19:46:12.497Z,7.36
2023-03-25T19:48:41.675Z,7.37
2023-03-25T19:51:09.438Z,7.43
2023-03-25T19:53:37.043Z,7.42
2023-03-25T19:56:05.787Z,7.43
2023-03-25T19:58:34.457Z,7.45
2023-03-25T20:01:02.315Z,7.45
2023-03-25T20:03:32.572Z,7.43
2023-03-25T20:06:06.349Z,7.41
2023-03-25T20:08:34.539Z,7.40
2023-03-25T20:11:09.016Z,7.38
2023-03-25T20:13:36.949Z,7.38
2023-03-25T20:16:05.038Z,7.36
2023-03-25T20:18:33.685Z,7.37
2023-03-25T20:21:03.464Z,7.32
2023-03-25T20:23:31.160Z,7.32
2023-03-25T20:25:58.694Z,7.29
2023-03-25T20:28:26.497Z,7.28
2023-03-25T20:30:55.234Z,7.29
2023-03-25T20:33:23.914Z,7.28
2023-03-25T20:35:51.843Z,7.27
2023-03-25T20:38:21.432Z,7.22
2023-03-25T20:40:50.370Z,7.21
2023-03-25T20:43:18.792Z,7.20
2023-03-25T20:45:46.448Z,7.21
2023-03-25T20:48:14.532Z,7.22
2023-03-25T20:50:43.404Z,7.22
2023-03-25T20:53:10.954Z,7.24
2023-03-25T20:55:40.288Z,7.25
2023-03-25T20:58:08.703Z,7.26
2023-03-25T21:00:37.293Z,7.29
2023-03-25T21:03:05.217Z,7.33
2023-03-25T21:05:33.317Z,7.33
2023-03-25T21:08:01.120Z,7.35
2023-03-25T21:10:28.717Z,7.41
2023-03-25T21:12:57.672Z,7.39
2023-03-25T21:15:26.102Z,7.41
2023-03-25T21:17:53.973Z,7.43
2023-03-25T21:20:23.787Z,7.42
2023-03-25T21:22:51.389Z,7.41
2023-03-25T21:25:19.168Z,7.41
2023-03-25T21:27:46.936Z,7.41
2023-03-25T21:30:16.525Z,7.44
2023-03-25T21:32:44.861Z,7.48
2023-03-25T21:35:14.390Z,7.48
2023-03-25T21:37:41.944Z,7.49
2023-03-25T21:40:11.716Z,7.50
2023-03-25T21:42:42.365Z,7.50
2023-03-25T21:45:13.632Z,7.54
2023-03-25T21:47:44.952Z,7.57
2023-03-25T21:50:16.339Z,7.56
2023-03-25T21:52:46.458Z,7.60
2023-03-25T21:55:16.920Z,7.59
2023-03-25T21:57:47.431Z,7.60
2023-03-25T22:00:19.422Z,7.61
2023-03-25T22:02:49.317Z,7.63
2023-03-25T22:05:17.729Z,7.63
2023-03-25T22:07:45.373Z,7.65
2023-03-25T22:10:13.114Z,7.64
2023-03-25T22:12:41.514Z,7.67
2023-03-25T22:15:11.162Z,7.69
2023-03-25T22:17:39.515Z,7.73
2023-03-25T22:20:10.103Z,7.70
2023-03-25T22:22:38.357Z,7.77
2023-03-25T22:25:07.739Z,7.74
2023-03-25T22:27:35.878Z,7.75
2023-03-25T22:30:03.596Z,7.77
2023-03-25T22:32:31.317Z,7.79
2023-03-25T22:34:59.325Z,7.83
2023-03-25T22:37:28.301Z,7.83
2023-03-25T22:39:56.012Z,7.83
2023-03-25T22:42:25.622Z,7.85
2023-03-25T22:44:54.767Z,7.90
2023-03-25T22:47:22.353Z,7.91
2023-03-25T22:52:43.361Z,7.93
2023-03-25T22:55:11.691Z,7.94
2023-03-25T22:57:39.400Z,7.95
2023-03-25T23:00:14.028Z,7.96
2023-03-25T23:02:42.454Z,7.95
2023-03-25T23:05:11.387Z,7.95
2023-03-25T23:07:39.016Z,7.96
2023-03-25T23:10:09.231Z,7.95
2023-03-25T23:12:36.997Z,7.97
2023-03-25T23:15:05.122Z,7.97
2023-03-25T23:17:36.406Z,7.99
2023-03-25T23:20:08.346Z,7.98
2023-03-25T23:22:35.899Z,7.97
2023-03-25T23:25:04.789Z,8.07
2023-03-25T23:27:36.361Z,7.99
2023-03-25T23:30:05.171Z,7.98
2023-03-25T23:32:34.613Z,7.98
2023-03-25T23:35:03.400Z,8.00
2023-03-25T23:37:33.905Z,8.04
2023-03-25T23:40:01.544Z,8.01
2023-03-25T23:42:34.774Z,8.00
2023-03-25T23:45:06.248Z,8.01
2023-03-25T23:47:33.820Z,8.00
2023-03-25T23:50:02.089Z,8.00
2023-03-25T23:52:33.391Z,8.02
2023-03-25T23:55:01.857Z,7.98
2023-03-25T23:57:30.224Z,7.97
2023-03-25T23:59:57.794Z,7.95
